Time;durP1;ratioP1;P1;durP2;ratioP2;P2;SDS_P1;SDS_P2;PMS_P1;PMS_P2;Temp;Humidity;BMP_temperature;BMP_pressure;BME280_temperature;BME280_humidity;BME280_pressure;Samples;Min_cycle;Max_cycle;Signal;HPM_P1;HPM_P2
2022/07/01 00:00:12;;;;;;;17.48;5.45;;;;;;;25.58;nan;95131.06;6272609;22;20011;-83
2022/07/01 00:02:37;;;;;;;12.23;6.10;;;;;;;25.86;nan;95160.53;6274102;22;20007;-84
2022/07/01 00:05:03;;;;;;;13.10;5.38;;;;;;;25.70;nan;95179.75;6272831;22;20475;-83
2022/07/01 00:07:28;;;;;;;12.65;5.38;;;;;;;25.97;nan;95183.16;6272431;22;20162;-83
2022/07/01 00:09:53;;;;;;;16.33;5.15;;;;;;;26.13;nan;95219.06;6273978;22;20027;-84
2022/07/01 00:12:19;;;;;;;8.90;5.18;;;;;;;25.99;nan;95194.44;6274835;22;20000;-84
2022/07/01 00:14:45;;;;;;;14.60;5.25;;;;;;;26.17;nan;95224.56;6275310;22;20328;-84
2022/07/01 00:17:10;;;;;;;15.70;5.38;;;;;;;26.03;nan;95206.13;6274069;22;20011;-84
2022/07/01 00:19:36;;;;;;;16.40;5.93;;;;;;;25.56;nan;95149.66;6274711;22;20332;-84
2022/07/01 00:22:01;;;;;;;7.20;5.10;;;;;;;25.34;nan;95111.38;6272794;22;20086;-84
2022/07/01 00:24:27;;;;;;;15.77;5.47;;;;;;;25.84;nan;95217.16;6272760;22;20014;-84
2022/07/01 00:26:53;;;;;;;11.27;5.00;;;;;;;25.64;nan;95186.63;6272391;22;20335;-84
2022/07/01 00:29:19;;;;;;;9.95;5.03;;;;;;;26.03;nan;95242.25;6274638;22;20450;-83
2022/07/01 00:31:44;;;;;;;12.70;4.57;;;;;;;25.51;nan;95158.13;6272165;22;20011;-83
2022/07/01 00:34:10;;;;;;;14.95;4.30;;;;;;;26.02;nan;95224.38;6273749;22;20035;-84
2022/07/01 00:36:35;;;;;;;9.80;3.92;;;;;;;25.66;nan;95197.94;6272408;22;20008;-84
2022/07/01 00:39:00;;;;;;;9.82;3.92;;;;;;;25.98;nan;95230.91;6274079;22;20284;-83
2022/07/01 00:41:26;;;;;;;11.27;4.20;;;;;;;25.90;nan;95238.22;6272289;22;20008;-84
2022/07/01 00:43:53;;;;;;;8.25;3.30;;;;;;;25.09;nan;95096.75;6273802;22;20012;-84
2022/07/01 00:46:19;;;;;;;15.93;5.28;;;;;;;25.57;nan;95171.00;6272008;22;20026;-82
2022/07/01 00:48:44;;;;;;;12.27;3.70;;;;;;;25.28;nan;95139.22;6273456;22;20007;-83
2022/07/01 00:51:10;;;;;;;12.10;3.60;;;;;;;25.84;nan;95242.41;6274508;22;20008;-83
2022/07/01 00:53:36;;;;;;;8.75;4.07;;;;;;;24.72;nan;95093.09;6276124;22;20004;-83
2022/07/01 00:56:02;;;;;;;13.32;3.97;;;;;;;25.48;nan;95208.50;6276061;22;20425;-84
2022/07/01 00:58:29;;;;;;;8.13;3.63;;;;;;;25.15;nan;95159.59;6248930;22;20083;-83
2022/07/01 01:00:56;;;;;;;7.97;3.42;;;;;;;25.51;nan;95226.00;6249006;22;20422;-84
2022/07/01 01:03:22;;;;;;;7.03;3.55;;;;;;;25.11;nan;95161.47;6248023;22;20015;-84
2022/07/01 01:05:48;;;;;;;11.43;3.85;;;;;;;25.12;nan;95176.59;6276589;22;20421;-84
2022/07/01 01:08:15;;;;;;;13.38;4.05;;;;;;;25.32;nan;95210.66;6275936;22;20299;-84
2022/07/01 01:10:42;;;;;;;9.18;4.07;;;;;;;24.98;nan;95153.56;6276106;22;20008;-83
2022/07/01 01:13:09;;;;;;;9.15;3.75;;;;;;;25.31;nan;95218.00;6249143;22;20482;-83
2022/07/01 01:15:34;;;;;;;6.78;4.03;;;;;;;24.81;nan;95140.47;6275292;22;20003;-84
2022/07/01 01:18:00;;;;;;;7.60;3.58;;;;;;;25.37;nan;95218.47;6248298;22;20265;-83
2022/07/01 01:20:25;;;;;;;7.60;3.65;;;;;;;24.27;nan;95131.84;6248807;22;20038;-83
2022/07/01 01:22:51;;;;;;;7.07;3.60;;;;;;;24.80;nan;95214.06;6275689;22;20075;-84
2022/07/01 01:25:17;;;;;;;12.35;3.70;;;;;;;24.50;nan;95144.25;6248285;22;20011;-84
2022/07/01 01:27:43;;;;;;;12.45;3.90;;;;;;;24.82;nan;95181.94;6248089;22;20401;-83
2022/07/01 01:30:14;;;;;;;11.18;3.70;;;;;;;24.78;nan;95183.84;6275619;22;20007;-84
2022/07/01 01:32:41;;;;;;;12.27;3.50;;;;;;;24.54;nan;95174.13;6248547;22;20073;-84
2022/07/01 01:35:08;;;;;;;10.70;3.92;;;;;;;25.11;nan;95251.81;6275561;22;20034;-84
2022/07/01 01:37:34;;;;;;;11.75;3.83;;;;;;;23.88;nan;95133.84;6248640;22;20017;-84
2022/07/01 01:40:00;;;;;;;13.63;4.28;;;;;;;24.10;nan;95188.06;6248508;22;20004;-84
2022/07/01 01:42:25;;;;;;;12.63;4.28;;;;;;;24.17;nan;95165.72;6248646;22;20011;-84
2022/07/01 01:44:51;;;;;;;9.35;3.70;;;;;;;24.78;nan;95257.84;6248388;22;20000;-84
2022/07/01 01:47:16;;;;;;;14.35;4.35;;;;;;;23.95;nan;95129.34;6275965;22;20007;-84
2022/07/01 01:49:42;;;;;;;9.98;4.00;;;;;;;24.18;nan;95165.34;6248357;22;20018;-84
2022/07/01 01:52:07;;;;;;;6.93;3.90;;;;;;;24.58;nan;95232.69;6275285;22;20083;-84
2022/07/01 01:54:33;;;;;;;9.88;3.70;;;;;;;24.05;nan;95163.97;6248486;22;20073;-84
2022/07/01 01:56:59;;;;;;;7.47;3.53;;;;;;;24.65;nan;95251.00;6274819;22;20019;-83
2022/07/01 01:59:24;;;;;;;12.05;3.97;;;;;;;24.39;nan;95218.41;6249525;22;20038;-84
2022/07/01 02:01:49;;;;;;;13.98;4.38;;;;;;;24.60;nan;95260.25;6275829;22;20028;-84
2022/07/01 02:04:15;;;;;;;18.10;4.68;;;;;;;23.90;nan;95164.06;6275523;22;20010;-85
2022/07/01 02:06:41;;;;;;;8.65;4.30;;;;;;;24.29;nan;95237.97;6247639;22;20016;-84
2022/07/01 02:09:08;;;;;;;12.00;4.55;;;;;;;24.50;nan;95262.75;6275449;22;20511;-84
2022/07/01 02:11:35;;;;;;;12.48;4.65;;;;;;;24.47;nan;95266.97;6275801;22;20007;-84
2022/07/01 02:14:00;;;;;;;8.82;4.25;;;;;;;24.24;nan;95249.91;6276026;22;20105;-84
2022/07/01 02:16:26;;;;;;;6.97;4.00;;;;;;;24.09;nan;95235.25;6274833;22;20000;-84
2022/07/01 02:18:52;;;;;;;11.00;4.30;;;;;;;23.65;nan;95150.81;6248392;22;20019;-84
2022/07/01 02:21:17;;;;;;;13.55;3.90;;;;;;;24.17;nan;95245.09;6275361;22;20007;-83
2022/07/01 02:23:43;;;;;;;9.93;4.15;;;;;;;24.13;nan;95232.59;6247388;22;20250;-84
2022/07/01 02:26:08;;;;;;;7.30;4.22;;;;;;;23.87;nan;95200.78;6275455;22;20015;-83
2022/07/01 02:28:33;;;;;;;12.05;4.25;;;;;;;24.02;nan;95245.97;6248504;22;20018;-84
2022/07/01 02:30:59;;;;;;;10.07;4.90;;;;;;;23.63;nan;95184.81;6247873;22;20016;-84
2022/07/01 02:33:24;;;;;;;11.93;5.47;;;;;;;23.97;nan;95248.16;6247495;22;20012;-84
2022/07/01 02:35:50;;;;;;;11.52;5.70;;;;;;;23.68;nan;95195.34;6275751;22;20011;-84
2022/07/01 02:38:16;;;;;;;15.30;5.07;;;;;;;23.43;nan;95203.69;6247443;22;20012;-84
2022/07/01 02:40:41;;;;;;;11.90;5.47;;;;;;;23.34;nan;95181.50;6247842;22;20091;-83
2022/07/01 02:43:07;;;;;;;11.38;5.25;;;;;;;24.08;nan;95300.63;6275160;22;20011;-84
2022/07/01 02:45:34;;;;;;;11.50;5.20;;;;;;;23.72;nan;95261.19;6275230;22;20065;-83
2022/07/01 02:48:01;;;;;;;11.45;5.38;;;;;;;23.96;nan;95284.50;6246929;22;20462;-83
2022/07/01 02:50:27;;;;;;;14.02;5.60;;;;;;;23.06;nan;95153.81;6274764;22;20280;-84
2022/07/01 02:52:53;;;;;;;21.35;5.63;;;;;;;23.68;nan;95255.69;6247445;22;20007;-83
2022/07/01 02:55:18;;;;;;;17.75;5.53;;;;;;;21.88;nan;94988.16;6247603;22;20022;-84
2022/07/01 02:57:44;;;;;;;13.70;5.28;;;;;;;23.82;nan;95269.53;6268230;22;20413;-84
2022/07/01 03:00:13;;;;;;;14.95;5.30;;;;;;;24.10;nan;95310.00;6273089;22;20027;-85
2022/07/01 03:02:38;;;;;;;17.83;5.90;;;;;;;23.37;nan;95232.19;6274909;22;20064;-84
2022/07/01 03:05:05;;;;;;;17.05;5.50;;;;;;;23.39;nan;95242.66;6272689;22;20004;-85
2022/07/01 03:07:30;;;;;;;20.90;6.55;;;;;;;23.90;nan;95315.72;6272594;22;20071;-84
2022/07/01 03:09:56;;;;;;;13.23;5.88;;;;;;;23.12;nan;95246.28;6274808;22;20422;-84
2022/07/01 03:12:25;;;;;;;8.10;5.07;;;;;;;23.17;nan;95262.25;6273387;22;20031;-84
2022/07/01 03:15:00;;;;;;;11.98;5.50;;;;;;;23.24;nan;95265.13;6274723;22;20003;-84
2022/07/01 03:17:27;;;;;;;19.20;5.35;;;;;;;23.23;nan;95277.88;6272667;22;20011;-84
2022/07/01 03:19:53;;;;;;;18.08;5.43;;;;;;;22.85;nan;95296.63;6274381;22;20004;-84
2022/07/01 03:22:21;;;;;;;19.15;5.57;;;;;;;22.66;nan;95245.91;6273135;22;20039;-83
2022/07/01 03:24:48;;;;;;;14.63;6.20;;;;;;;22.80;nan;95262.53;6275013;22;20015;-84
2022/07/01 03:27:14;;;;;;;19.23;6.28;;;;;;;23.29;nan;95327.06;6273066;22;20019;-83
2022/07/01 03:29:40;;;;;;;12.90;5.60;;;;;;;22.94;nan;95281.03;6274123;22;20043;-84
2022/07/01 03:32:06;;;;;;;13.43;6.10;;;;;;;23.16;nan;95304.75;6274943;22;20000;-84
2022/07/01 03:34:31;;;;;;;16.88;6.18;;;;;;;22.87;nan;95251.91;6274430;22;20435;-84
2022/07/01 03:36:57;;;;;;;16.92;6.65;;;;;;;23.31;nan;95322.09;6272457;22;20007;-84
2022/07/01 03:39:22;;;;;;;16.80;6.53;;;;;;;23.20;nan;95308.31;6274443;22;20039;-85
2022/07/01 03:41:48;;;;;;;15.65;7.05;;;;;;;23.06;nan;95265.50;6274505;22;20027;-84
2022/07/01 03:44:13;;;;;;;21.88;8.00;;;;;;;23.30;nan;95328.66;6274997;22;20011;-84
2022/07/01 03:46:39;;;;;;;16.40;7.07;;;;;;;23.10;nan;95284.53;6274611;22;20046;-83
2022/07/01 03:49:04;;;;;;;17.70;7.10;;;;;;;22.75;nan;95227.63;6274601;22;20004;-83
2022/07/01 03:51:30;;;;;;;19.83;7.25;;;;;;;22.93;nan;95245.09;6274750;22;20082;-84
2022/07/01 03:56:40;;;;;;;12.63;6.95;;;;;;;23.42;nan;95315.78;6274279;22;20392;-84
2022/07/01 03:59:05;;;;;;;16.77;7.85;;;;;;;23.00;nan;95231.72;6246661;22;20046;-83
2022/07/01 04:01:31;;;;;;;18.83;7.85;;;;;;;23.30;nan;95288.06;6246753;22;20019;-84
2022/07/01 04:03:56;;;;;;;17.05;7.55;;;;;;;23.24;nan;95276.72;6247277;22;20011;-84
2022/07/01 04:06:22;;;;;;;11.57;6.97;;;;;;;22.74;nan;95180.09;6247404;22;20424;-83
2022/07/01 04:08:49;;;;;;;16.73;7.13;;;;;;;23.46;nan;95318.59;6274894;22;20014;-82
2022/07/01 04:11:15;;;;;;;16.38;7.13;;;;;;;23.63;nan;95334.50;6245985;22;20007;-84
2022/07/01 04:13:43;;;;;;;10.82;6.93;;;;;;;23.66;nan;95327.56;6274437;22;20094;-83
2022/07/01 04:16:09;;;;;;;12.90;7.50;;;;;;;22.94;nan;95225.03;6247869;22;20014;-84
2022/07/01 04:18:35;;;;;;;17.92;7.22;;;;;;;22.94;nan;95216.91;6246575;22;20015;-84
2022/07/01 04:23:45;;;;;;;13.05;7.07;;;;;;;23.94;nan;95352.59;6274652;22;20473;-84
2022/07/01 04:26:10;;;;;;;14.73;7.55;;;;;;;23.94;nan;95338.25;6274550;22;20004;-83
2022/07/01 04:28:36;;;;;;;13.68;6.68;;;;;;;23.43;nan;95265.16;6247557;22;20023;-83
2022/07/01 04:31:02;;;;;;;16.88;7.57;;;;;;;23.64;nan;95297.38;6246971;22;20366;-84
2022/07/01 04:33:27;;;;;;;18.95;7.47;;;;;;;23.56;nan;95277.50;6246826;22;20454;-84
2022/07/01 04:35:52;;;;;;;16.15;8.00;;;;;;;23.76;nan;95313.50;6274679;22;20019;-84
2022/07/01 04:38:18;;;;;;;14.23;8.45;;;;;;;23.20;nan;95242.59;6246994;22;20076;-83
2022/07/01 04:41:58;;;;;;;15.85;8.70;;;;;;;23.70;nan;95320.34;6246990;22;20015;-84
2022/07/01 04:43:29;;;;;;;19.70;8.52;;;;;;;23.67;nan;95285.81;6273659;22;20020;-83
2022/07/01 04:45:55;;;;;;;16.15;9.18;;;;;;;23.59;nan;95297.63;6247439;22;20108;-84
2022/07/01 04:48:20;;;;;;;19.55;7.93;;;;;;;23.92;nan;95313.44;6246005;22;20016;-83
2022/07/01 04:50:46;;;;;;;18.00;8.27;;;;;;;23.95;nan;95323.59;6246024;22;20069;-83
2022/07/01 04:53:13;;;;;;;15.70;8.23;;;;;;;24.24;nan;95363.72;6246706;22;20099;-83
2022/07/01 04:55:38;;;;;;;22.00;8.07;;;;;;;23.96;nan;95346.81;6241214;22;20012;-84
2022/07/01 04:58:04;;;;;;;20.60;9.57;;;;;;;23.12;nan;95217.31;6271534;22;20096;-84
2022/07/01 05:00:30;;;;;;;21.38;8.77;;;;;;;23.70;nan;95290.56;6242243;22;20015;-84
2022/07/01 05:02:55;;;;;;;19.83;9.38;;;;;;;24.12;nan;95331.28;6241912;22;20034;-83
2022/07/01 05:05:21;;;;;;;23.30;8.88;;;;;;;24.27;nan;95332.38;6236560;22;20050;-83
2022/07/01 05:07:47;;;;;;;18.98;9.88;;;;;;;24.39;nan;95354.72;6242701;22;20008;-84
2022/07/01 05:10:12;;;;;;;22.40;9.52;;;;;;;24.48;nan;95354.50;6276922;22;20054;-84
2022/07/01 05:12:38;;;;;;;21.38;8.73;;;;;;;24.58;nan;95362.06;6244804;22;20389;-84
2022/07/01 05:15:04;;;;;;;22.45;9.73;;;;;;;24.61;nan;95351.28;6268482;22;19999;-83
2022/07/01 05:22:57;;;;;;;23.67;9.35;;;;;;;24.41;nan;95327.28;6268170;22;20050;-83
2022/07/01 05:25:23;;;;;;;22.88;9.82;;;;;;;24.55;nan;95352.72;6237062;22;20075;-83
2022/07/01 05:27:48;;;;;;;26.17;9.10;;;;;;;24.77;nan;95356.63;6240598;22;20087;-83
2022/07/01 05:30:14;;;;;;;19.27;9.23;;;;;;;24.71;nan;95336.38;6269937;22;20435;-83
2022/07/01 05:32:39;;;;;;;37.83;10.73;;;;;;;24.33;nan;95301.94;6265885;22;20014;-84
2022/07/01 05:35:05;;;;;;;19.30;9.02;;;;;;;24.20;nan;95312.13;6265285;22;20007;-83
2022/07/01 05:37:41;;;;;;;24.05;9.95;;;;;;;24.22;nan;95261.09;6265250;22;20007;-84
2022/07/01 05:40:07;;;;;;;22.60;9.32;;;;;;;23.54;nan;95168.78;6237667;22;20004;-84
2022/07/01 05:42:33;;;;;;;22.67;10.23;;;;;;;23.39;nan;95166.88;6235173;22;20185;-83
2022/07/01 05:44:58;;;;;;;26.65;10.38;;;;;;;22.55;nan;95010.53;6262742;22;20286;-83
2022/07/01 05:47:23;;;;;;;28.50;10.63;;;;;;;24.64;nan;95352.50;6261940;22;20015;-83
2022/07/01 05:49:49;;;;;;;29.05;11.23;;;;;;;24.36;nan;95300.44;6221395;22;20364;-83
2022/07/01 05:52:14;;;;;;;27.60;9.90;;;;;;;24.52;nan;95299.22;6233654;22;20020;-83
2022/07/01 05:54:40;;;;;;;35.80;10.75;;;;;;;24.44;nan;95267.69;6232704;22;20364;-84
2022/07/01 05:57:05;;;;;;;20.70;9.85;;;;;;;24.91;nan;95364.25;6263457;22;20434;-83
2022/07/01 05:59:31;;;;;;;19.95;10.65;;;;;;;24.18;nan;95254.00;6263307;22;20049;-84
2022/07/01 06:01:56;;;;;;;25.55;10.48;;;;;;;24.70;nan;95347.56;6263024;22;20003;-83
2022/07/01 06:04:22;;;;;;;32.13;10.65;;;;;;;24.69;nan;95357.63;6260659;22;20472;-83
2022/07/01 06:06:47;;;;;;;22.00;9.18;;;;;;;24.86;nan;95345.53;6228309;22;20031;-83
2022/07/01 06:09:13;;;;;;;27.17;10.02;;;;;;;24.42;nan;95274.59;6262684;22;20474;-83
2022/07/01 06:11:38;;;;;;;15.35;10.60;;;;;;;23.72;nan;95188.09;6234297;22;20122;-83
2022/07/01 06:14:03;;;;;;;19.42;8.88;;;;;;;24.36;nan;95290.38;6262889;22;20079;-84
2022/07/01 06:16:29;;;;;;;22.95;9.45;;;;;;;24.44;nan;95296.72;6263819;22;20003;-84
2022/07/01 06:18:54;;;;;;;28.10;9.85;;;;;;;24.49;nan;95296.41;6234445;22;20016;-84
2022/07/01 06:21:20;;;;;;;24.80;10.25;;;;;;;24.49;nan;95302.63;6237011;22;20015;-84
2022/07/01 06:23:45;;;;;;;20.85;10.00;;;;;;;24.88;nan;95360.28;6232900;22;20019;-84
2022/07/01 06:26:12;;;;;;;17.63;9.23;;;;;;;24.96;nan;95358.53;6236164;22;20253;-83
2022/07/01 06:28:37;;;;;;;16.52;8.32;;;;;;;25.02;nan;95342.75;6234181;22;20021;-84
2022/07/01 06:31:03;;;;;;;26.02;10.10;;;;;;;25.10;nan;95374.28;6263321;22;20015;-83
2022/07/01 06:33:30;;;;;;;20.25;8.85;;;;;;;25.14;nan;95367.00;6262096;22;20008;-83
2022/07/01 06:35:56;;;;;;;26.92;9.27;;;;;;;25.18;nan;95368.59;6236471;22;20514;-84
2022/07/01 06:38:22;;;;;;;22.48;9.15;;;;;;;24.70;nan;95315.03;6264402;22;20069;-82
2022/07/01 06:41:26;;;;;;;28.00;9.52;;;;;;;25.13;nan;95341.00;6233503;22;20422;-83
2022/07/01 06:43:33;;;;;;;18.90;8.93;;;;;;;25.04;nan;95321.44;6260964;22;20038;-83
2022/07/01 06:45:59;;;;;;;32.42;10.45;;;;;;;24.72;nan;95307.31;6235416;22;20427;-82
2022/07/01 06:48:24;;;;;;;20.27;9.43;;;;;;;24.82;nan;95282.28;6235052;22;20027;-83
2022/07/01 06:50:49;;;;;;;29.60;8.63;;;;;;;25.08;nan;95308.75;6235142;22;20020;-82
2022/07/01 06:53:15;;;;;;;21.05;8.85;;;;;;;24.68;nan;95263.84;6263624;22;20018;-82
2022/07/01 06:55:40;;;;;;;21.30;9.63;;;;;;;25.36;nan;95366.19;6236470;22;20050;-82
2022/07/01 06:58:06;;;;;;;29.33;9.45;;;;;;;25.08;nan;95298.66;6264774;22;20108;-82
2022/07/01 07:00:31;;;;;;;25.20;9.25;;;;;;;25.09;nan;95296.75;6235407;22;20024;-84
2022/07/01 07:02:56;;;;;;;23.38;8.45;;;;;;;25.20;nan;95314.75;6231762;22;20019;-83
2022/07/01 07:05:22;;;;;;;28.13;9.98;;;;;;;25.02;nan;95313.69;6265042;22;20466;-83
2022/07/01 07:07:47;;;;;;;24.88;10.00;;;;;;;25.04;nan;95297.81;6262900;22;20012;-84
2022/07/01 07:10:13;;;;;;;22.73;9.48;;;;;;;25.18;nan;95324.41;6235306;22;20565;-83
2022/07/01 07:12:38;;;;;;;19.38;9.00;;;;;;;25.31;nan;95332.00;6260635;22;20012;-83
2022/07/01 07:15:04;;;;;;;21.73;9.27;;;;;;;25.26;nan;95337.72;6263161;22;20091;-83
2022/07/01 07:17:30;;;;;;;21.85;8.23;;;;;;;25.45;nan;95323.31;6261246;22;20035;-84
2022/07/01 07:19:56;;;;;;;18.80;8.55;;;;;;;25.74;nan;95360.63;6263408;22;20019;-83
2022/07/01 07:22:22;;;;;;;20.25;8.63;;;;;;;25.57;nan;95328.50;6235192;22;20460;-84
2022/07/01 07:24:48;;;;;;;26.30;9.13;;;;;;;25.81;nan;95361.88;6259233;22;20023;-84
2022/07/01 07:27:13;;;;;;;17.08;7.78;;;;;;;25.18;nan;95281.75;6260311;22;20020;-84
2022/07/01 07:29:39;;;;;;;32.75;9.07;;;;;;;25.20;nan;95270.53;6263824;22;20000;-83
2022/07/01 07:32:04;;;;;;;17.63;7.10;;;;;;;25.43;nan;95306.59;6236827;22;20020;-84
2022/07/01 07:34:30;;;;;;;23.27;6.70;;;;;;;25.30;nan;95246.28;6262678;22;20106;-84
2022/07/01 07:36:55;;;;;;;19.88;7.00;;;;;;;25.83;nan;95307.97;6233700;22;20012;-83
2022/07/01 07:39:21;;;;;;;17.38;7.03;;;;;;;25.94;nan;95325.22;6233751;22;20121;-84
2022/07/01 07:41:46;;;;;;;22.73;7.40;;;;;;;25.90;nan;95291.75;6233106;22;20015;-84
2022/07/01 07:44:12;;;;;;;18.73;7.10;;;;;;;25.89;nan;95314.63;6231598;22;20022;-83
2022/07/01 07:46:37;;;;;;;20.15;7.43;;;;;;;26.02;nan;95360.25;6259060;22;20073;-83
2022/07/01 07:49:03;;;;;;;18.83;6.50;;;;;;;25.30;nan;95219.16;6262107;22;20012;-83
2022/07/01 07:51:28;;;;;;;17.25;6.80;;;;;;;24.56;nan;95082.41;6233996;22;20015;-84
2022/07/01 07:53:53;;;;;;;16.83;5.60;;;;;;;26.18;nan;95296.75;6236645;22;20573;-84
2022/07/01 07:56:20;;;;;;;24.00;7.38;;;;;;;26.16;nan;95305.31;6235150;22;20057;-83
2022/07/01 07:58:46;;;;;;;20.70;6.35;;;;;;;26.14;nan;95294.00;6262901;22;20477;-84
2022/07/01 08:01:11;;;;;;;16.10;6.80;;;;;;;26.09;nan;95322.28;6259484;22;20015;-83
2022/07/01 08:03:37;;;;;;;11.25;5.93;;;;;;;26.17;nan;95298.69;6258423;22;20446;-83
2022/07/01 08:06:06;;;;;;;12.25;6.72;;;;;;;26.30;nan;95335.41;6260822;22;20081;-84
2022/07/01 08:08:32;;;;;;;24.85;6.20;;;;;;;25.97;nan;95272.81;6256632;22;20008;-84
2022/07/01 08:10:57;;;;;;;15.45;6.20;;;;;;;26.17;nan;95284.34;6260887;22;20023;-84
2022/07/01 08:13:23;;;;;;;10.68;6.10;;;;;;;26.39;nan;95288.91;6261585;22;20015;-84
2022/07/01 08:15:48;;;;;;;18.60;5.47;;;;;;;26.24;nan;95255.31;6259671;22;20498;-84
2022/07/01 08:18:14;;;;;;;22.35;7.13;;;;;;;26.36;nan;95284.97;6259895;22;20008;-84
2022/07/01 08:20:39;;;;;;;16.48;6.53;;;;;;;26.64;nan;95300.03;6259324;22;20166;-84
2022/07/01 08:23:05;;;;;;;12.35;7.03;;;;;;;26.20;nan;95268.06;6262347;22;20149;-83
2022/07/01 08:25:30;;;;;;;11.73;6.20;;;;;;;26.18;nan;95262.22;6258534;22;20212;-84
2022/07/01 08:27:55;;;;;;;14.75;6.32;;;;;;;26.01;nan;95243.78;6255236;22;20012;-84
2022/07/01 08:30:21;;;;;;;13.77;6.50;;;;;;;26.51;nan;95273.09;6259076;22;20015;-84
2022/07/01 08:32:46;;;;;;;15.55;6.47;;;;;;;26.93;nan;95325.63;6260852;22;20015;-83
2022/07/01 08:35:12;;;;;;;14.30;6.20;;;;;;;27.10;nan;95325.78;6257651;22;20016;-84
2022/07/01 08:37:37;;;;;;;19.00;6.82;;;;;;;26.73;nan;95263.22;6254815;22;20016;-83
2022/07/01 08:40:03;;;;;;;17.13;6.07;;;;;;;26.16;nan;95177.56;6255905;22;20105;-84
2022/07/01 08:42:28;;;;;;;15.07;6.72;;;;;;;27.34;nan;95334.53;6261461;22;20069;-84
2022/07/01 08:44:54;;;;;;;17.95;6.70;;;;;;;26.97;nan;95256.47;6259224;22;20081;-83
2022/07/01 08:47:20;;;;;;;15.80;6.72;;;;;;;26.85;nan;95254.75;6253910;22;20062;-83
2022/07/01 08:49:45;;;;;;;20.02;6.63;;;;;;;27.34;nan;95296.41;6258682;22;20437;-84
2022/07/01 08:52:11;;;;;;;19.13;6.30;;;;;;;27.06;nan;95237.09;6255162;22;20019;-83
2022/07/01 08:54:38;;;;;;;12.40;6.00;;;;;;;27.37;nan;95282.06;6255255;22;20008;-84
2022/07/01 08:57:05;;;;;;;15.48;6.25;;;;;;;27.57;nan;95308.69;6259556;22;20076;-84
2022/07/01 08:59:30;;;;;;;14.43;6.57;;;;;;;26.78;nan;95164.13;6258459;22;20062;-84
2022/07/01 09:02:05;;;;;;;18.02;6.10;;;;;;;27.86;nan;95317.81;6255206;22;20015;-84
2022/07/01 09:04:31;;;;;;;20.38;6.10;;;;;;;27.59;nan;95316.47;6230622;22;20446;-84
2022/07/01 09:07:07;;;;;;;19.17;6.00;;;;;;;27.35;nan;95238.88;6231767;22;20469;-84
2022/07/01 09:09:38;;;;;;;18.65;6.03;;;;;;;27.88;nan;95304.59;6258673;22;20370;-84
2022/07/01 09:12:04;;;;;;;13.43;6.10;;;;;;;27.44;nan;95244.75;6232548;22;20110;-84
2022/07/01 09:14:32;;;;;;;10.60;5.10;;;;;;;27.48;nan;95272.00;6236088;22;20023;-84
2022/07/01 09:17:00;;;;;;;14.52;5.88;;;;;;;27.67;nan;95281.91;6234250;22;20402;-83
2022/07/01 09:19:29;;;;;;;15.20;6.03;;;;;;;27.70;nan;95289.28;6235649;22;20429;-85
2022/07/01 09:22:00;;;;;;;19.88;5.90;;;;;;;27.44;nan;95252.16;6262360;22;20042;-84
2022/07/01 09:24:33;;;;;;;16.52;5.80;;;;;;;28.09;nan;95311.31;6234856;22;20087;-83
2022/07/01 09:27:12;;;;;;;14.93;5.43;;;;;;;28.23;nan;95311.41;6266027;22;20406;-84
2022/07/01 09:29:41;;;;;;;11.10;4.75;;;;;;;28.04;nan;95280.53;6234859;22;20026;-84
2022/07/01 09:32:10;;;;;;;17.30;5.43;;;;;;;28.32;nan;95312.63;6232167;22;20416;-84
2022/07/01 09:34:43;;;;;;;14.00;4.90;;;;;;;27.37;nan;95173.91;6231272;22;20237;-84
2022/07/01 09:37:13;;;;;;;13.48;4.82;;;;;;;28.12;nan;95273.16;6234473;22;20004;-85
2022/07/01 09:39:55;;;;;;;10.65;4.97;;;;;;;27.68;nan;95186.16;6237174;22;20072;-84
2022/07/01 09:42:22;;;;;;;10.38;4.90;;;;;;;28.46;nan;95279.16;6260882;22;20004;-84
2022/07/01 09:44:59;;;;;;;11.23;5.30;;;;;;;28.29;nan;95245.22;6233022;22;20022;-83
2022/07/01 09:47:31;;;;;;;20.38;6.10;;;;;;;29.09;nan;95294.91;6266317;22;20458;-84
2022/07/01 09:49:57;;;;;;;13.45;4.93;;;;;;;29.80;nan;95283.94;6237166;22;20022;-84
2022/07/01 09:52:24;;;;;;;10.68;5.28;;;;;;;30.73;nan;95295.34;6263473;22;20003;-83
2022/07/01 09:54:50;;;;;;;12.15;4.22;;;;;;;31.52;nan;95252.50;6234883;22;20625;-83
2022/07/01 09:57:17;;;;;;;14.80;4.25;;;;;;;32.69;nan;95262.19;6249116;22;20111;-84
2022/07/01 09:59:43;;;;;;;6.75;3.80;;;;;;;33.64;nan;95256.38;6263602;22;20167;-84
2022/07/01 10:02:09;;;;;;;8.02;3.47;;;;;;;33.32;nan;95125.78;6268083;22;20083;-84
2022/07/01 10:04:38;;;;;;;6.57;3.17;;;;;;;35.11;nan;95255.72;6262613;22;20027;-84
2022/07/01 10:07:37;;;;;;;5.10;4.03;;;;;;;35.81;nan;95275.28;6262893;22;20019;-85
2022/07/01 10:10:45;;;;;;;7.55;3.20;;;;;;;36.74;nan;95273.50;6260858;22;20279;-84
2022/07/01 10:13:16;;;;;;;9.32;4.13;;;;;;;36.91;nan;95280.50;6141673;23;20245;-84
2022/07/01 10:15:45;;;;;;;7.25;3.53;;;;;;;37.29;nan;95230.72;6115956;23;20022;-84
2022/07/01 10:18:25;;;;;;;11.05;4.00;;;;;;;38.05;nan;95283.13;6217827;22;20370;-84
2022/07/01 10:20:51;;;;;;;;;;;;;;;38.65;nan;95273.88;6267466;22;20008;-84
2022/07/01 10:23:20;;;;;;;10.48;3.40;;;;;;;38.87;nan;95255.94;6290812;22;19995;-84
2022/07/01 10:25:48;;;;;;;6.18;3.15;;;;;;;38.59;nan;95193.31;6268435;22;20035;-84
2022/07/01 10:28:25;;;;;;;7.05;3.85;;;;;;;39.23;nan;95263.66;6267268;22;20102;-84
2022/07/01 10:31:02;;;;;;;10.27;4.10;;;;;;;38.36;nan;95143.94;6268865;22;20037;-84
2022/07/01 10:33:33;;;;;;;7.35;3.97;;;;;;;39.42;nan;95261.75;6281036;22;20487;-84
2022/07/01 10:36:07;;;;;;;11.98;4.22;;;;;;;39.01;nan;95256.66;6271595;22;20018;-84
2022/07/01 10:38:33;;;;;;;9.63;4.47;;;;;;;38.81;nan;95182.94;6266906;22;20012;-84
2022/07/01 10:41:09;;;;;;;12.27;4.65;;;;;;;38.98;nan;95189.81;6268795;22;20010;-84
2022/07/01 10:43:41;;;;;;;9.48;4.88;;;;;;;38.46;nan;95106.72;6265874;22;20039;-85
2022/07/01 10:46:07;;;;;;;13.43;5.50;;;;;;;38.86;nan;95203.72;6263713;22;20015;-85
2022/07/01 10:48:33;;;;;;;14.60;5.65;;;;;;;38.84;nan;95184.00;6261870;22;20102;-85
2022/07/01 10:51:00;;;;;;;12.93;5.50;;;;;;;38.38;nan;95210.72;6264710;22;20008;-85
2022/07/01 10:53:46;;;;;;;13.90;4.93;;;;;;;38.43;nan;95188.75;6265186;22;20652;-85
2022/07/01 10:56:18;;;;;;;9.65;4.43;;;;;;;39.08;nan;95228.63;6266442;22;20003;-84
2022/07/01 10:58:44;;;;;;;13.07;4.72;;;;;;;39.08;nan;95212.75;6268025;22;20023;-84
2022/07/01 11:01:09;;;;;;;11.10;4.10;;;;;;;38.31;nan;95125.91;6240190;22;20111;-84
2022/07/01 11:03:39;;;;;;;5.53;4.20;;;;;;;38.37;nan;95143.50;6267940;22;20663;-84
2022/07/01 11:06:05;;;;;;;10.90;4.27;;;;;;;38.71;nan;95186.91;6240107;22;20020;-83
2022/07/01 11:08:30;;;;;;;7.97;3.72;;;;;;;38.88;nan;95192.97;6268175;22;20537;-84
2022/07/01 11:11:01;;;;;;;7.88;3.80;;;;;;;39.04;nan;95216.91;6240172;22;20090;-84
2022/07/01 11:13:28;;;;;;;7.82;4.35;;;;;;;39.42;nan;95239.53;6268678;22;20021;-84
2022/07/01 11:15:55;;;;;;;8.45;3.72;;;;;;;39.46;nan;95206.09;6266228;22;20015;-84
2022/07/01 11:18:21;;;;;;;11.90;3.20;;;;;;;39.61;nan;95221.66;6240887;22;20087;-84
2022/07/01 11:20:46;;;;;;;6.57;3.20;;;;;;;38.38;nan;95056.38;6270227;22;20007;-83
2022/07/01 11:23:12;;;;;;;7.28;3.80;;;;;;;39.19;nan;95226.22;6236657;22;20370;-84
2022/07/01 11:25:41;;;;;;;5.22;3.60;;;;;;;39.10;nan;95179.03;6241357;22;20015;-84
2022/07/01 11:28:06;;;;;;;6.28;3.78;;;;;;;38.75;nan;95143.19;6241327;22;20012;-84
2022/07/01 11:30:32;;;;;;;9.85;3.78;;;;;;;39.01;nan;95182.56;6240243;22;20014;-84
2022/07/01 11:32:59;;;;;;;7.65;3.50;;;;;;;38.58;nan;95090.03;6242766;22;20149;-84
2022/07/01 11:41:02;;;;;;;11.90;2.70;;;;;;;38.96;nan;95197.81;6270279;22;20054;-85
2022/07/01 11:43:36;;;;;;;3.95;2.90;;;;;;;39.11;nan;95211.09;6267816;22;20396;-84
2022/07/01 11:46:03;;;;;;;4.13;3.28;;;;;;;38.50;nan;95096.31;6242792;22;20016;-83
2022/07/01 11:48:33;;;;;;;5.20;3.60;;;;;;;39.16;nan;95202.94;6239469;22;20019;-83
2022/07/01 11:51:01;;;;;;;6.10;3.28;;;;;;;38.98;nan;95100.31;6241234;22;20007;-84
2022/07/01 11:53:27;;;;;;;8.82;3.30;;;;;;;39.67;nan;95185.78;6267375;22;20011;-83
2022/07/01 11:55:53;;;;;;;10.30;3.53;;;;;;;39.22;nan;95175.34;6266381;22;20011;-83
2022/07/01 11:58:18;;;;;;;6.25;3.20;;;;;;;38.12;nan;95168.56;6266063;22;20160;-84